Amavisti — V2CR5 — position and weather

sailwx.info

Track history (hours):
 
Tides and Currents Weather Stations Pressure Air Temp Water Temp Dewpoint Dewpoint Depression Visibility Wind Speed Wind Dir Waves Ship Positions

Amavisti

Last reported at 2014-Nov-21 10:19 UTC. Time now 2014-Nov-23 18:33 UTC.
Position N 50°34' E 000°09'.

Length 116 m; draft 5.6 m.

Type: Cargo ship. MMSI: 305086000.

Date/timePositionNaut miles runAvg speedWind from/ knotsBaromVisibWave heightAir tempDewpointWater temp
2014-Nov-21 10:19N 50°34' E 000°09'810.7
2014-Nov-21 09:33N 50°36' E 000°21'10 9.9
2014-Nov-21 08:33N 50°40' E 000°36'1010.1
2014-Nov-21 07:34N 50°45' E 000°49'1111.3
2014-Nov-21 06:33N 50°52' E 001°04'1313.0
2014-Nov-21 05:32N 51°00' E 001°20'1313.5
2014-Nov-21 04:33N 51°07' E 001°38'1110.6
2014-Nov-21 03:33N 51°02' E 001°53'1212.1
2014-Nov-21 02:33N 51°03' E 002°12'6 5.2
2014-Nov-21 01:28N 51°03' E 002°21'0 0.2
2014-Nov-20 23:29N 51°03' E 002°21'0 0.0
2014-Nov-20 22:26N 51°03' E 002°21'0 0.0
2014-Nov-20 21:26N 51°03' E 002°21'0 0.0
2014-Nov-20 20:22N 51°03' E 002°21'0 0.0
2014-Nov-20 19:18N 51°03' E 002°21'0 0.0
2014-Nov-20 18:31N 51°03' E 002°21'0 0.0
2014-Nov-20 17:33N 51°03' E 002°21'0 0.0
2014-Nov-20 16:33N 51°03' E 002°21'0 0.0
2014-Nov-20 15:22N 51°03' E 002°21'0 0.0
2014-Nov-20 14:33N 51°03' E 002°21'1 0.7
2014-Nov-20 13:33N 51°03' E 002°20'15 6.9
2014-Nov-20 11:23N 51°02' E 001°56'7 6.7
2014-Nov-20 10:23N 51°02' E 001°46'1011.4
2014-Nov-20 09:34N 50°57' E 001°33'1312.3
2014-Nov-20 08:31N 50°45' E 001°24'  
2014-Nov-16 21:03N 43°20' W 003°02'0 0.0
2014-Nov-16 20:33N 43°20' W 003°02'0 0.0
2014-Nov-16 19:33N 43°20' W 003°02'0 0.0
2014-Nov-16 18:33N 43°20' W 003°02'0 0.0
2014-Nov-16 17:33N 43°20' W 003°02'0 0.0
2014-Nov-16 16:33N 43°20' W 003°02'0 0.0
2014-Nov-16 15:33N 43°20' W 003°02'0 0.0
2014-Nov-16 14:33N 43°20' W 003°02'0 0.0
2014-Nov-16 13:33N 43°20' W 003°02'0 0.0
2014-Nov-16 12:33N 43°20' W 003°02'0 0.0
2014-Nov-16 11:33N 43°20' W 003°02'0 0.0
2014-Nov-16 10:33N 43°20' W 003°02'0 0.0
2014-Nov-16 09:33N 43°20' W 003°02'0 0.0
2014-Nov-16 08:33N 43°20' W 003°02'0 0.0
2014-Nov-16 07:33N 43°20' W 003°02'0 0.0
2014-Nov-16 06:33N 43°20' W 003°02'0 0.0
2014-Nov-16 05:33N 43°20' W 003°02'0 0.0
2014-Nov-16 04:33N 43°20' W 003°02'0 0.0
2014-Nov-16 03:33N 43°20' W 003°02'0 0.0
2014-Nov-16 02:33N 43°20' W 003°02'4 4.2
2014-Nov-16 01:33N 43°24' W 003°05'1 1.3
2014-Nov-16 00:33N 43°25' W 003°06'5 5.4
2014-Nov-15 23:33N 43°30' W 003°09'1010.5
2014-Nov-15 22:33N 43°40' W 003°14'1010.2
2014-Nov-15 21:33N 43°49' W 003°19'  
2014-Nov-13 07:28N 50°33' E 000°03'1011.3
2014-Nov-13 06:33N 50°36' E 000°18'1111.0
2014-Nov-13 05:33N 50°39' E 000°35'1010.4
2014-Nov-13 04:33N 50°45' E 000°49'10 9.6
2014-Nov-13 03:33N 50°50' E 001°01'18 9.0
2014-Nov-13 01:33N 51°02' E 001°23'1010.3
2014-Nov-13 00:33N 51°07' E 001°38'1110.6
2014-Nov-12 23:34N 51°02' E 001°53'1212.4
2014-Nov-12 22:33N 51°04' E 002°12'6 5.4
2014-Nov-12 21:30N 51°03' E 002°21'1 0.6
2014-Nov-12 20:31N 51°03' E 002°21'0 0.0
2014-Nov-12 19:31N 51°03' E 002°21'0 0.0
2014-Nov-12 18:31N 51°03' E 002°21'0 0.0
2014-Nov-12 17:25N 51°03' E 002°21'0 0.0
2014-Nov-12 15:28N 51°03' E 002°21'0 0.0
2014-Nov-12 14:25N 51°03' E 002°21'0 0.0
2014-Nov-12 12:16N 51°03' E 002°21'0 0.0
2014-Nov-12 11:13N 51°03' E 002°21'0 0.0
2014-Nov-12 10:28N 51°03' E 002°21'0 0.0
2014-Nov-12 09:31N 51°03' E 002°21'0 0.0
2014-Nov-12 08:13N 51°03' E 002°21'0 0.0
2014-Nov-12 07:31N 51°03' E 002°21'0 0.0
2014-Nov-12 06:31N 51°03' E 002°21'0 0.0
2014-Nov-12 05:31N 51°03' E 002°21'0 0.0
2014-Nov-12 04:04N 51°03' E 002°21'0 0.0
2014-Nov-12 03:16N 51°03' E 002°21'0 0.0
2014-Nov-12 02:07N 51°03' E 002°21'0 0.0
2014-Nov-12 01:10N 51°03' E 002°21'0 0.0
2014-Nov-12 00:22N 51°03' E 002°21'0 0.0
2014-Nov-11 23:31N 51°03' E 002°21'0 0.0
2014-Nov-11 22:07N 51°03' E 002°21'0 0.0
2014-Nov-11 21:22N 51°03' E 002°21'0 0.0
2014-Nov-11 20:22N 51°03' E 002°21'0 0.0
2014-Nov-11 19:10N 51°03' E 002°21'0 0.0
2014-Nov-11 18:31N 51°03' E 002°21'0 0.0
2014-Nov-11 17:23N 51°03' E 002°21'0 0.0
2014-Nov-11 15:16N 51°03' E 002°21'0 0.0
2014-Nov-11 14:25N 51°03' E 002°21'0 0.0
2014-Nov-11 13:04N 51°03' E 002°21'  
Track history (hours):
 
Tides and Currents Weather Stations Pressure Air Temp Water Temp Dewpoint Dewpoint Depression Visibility Wind Speed Wind Dir Waves Ship Positions

Amavisti

Last reported at 2014-Nov-21 10:19 UTC. Time now 2014-Nov-23 18:33 UTC.
Position N 50°34' E 000°09'.

Length 116 m; draft 5.6 m.

Type: Cargo ship. MMSI: 305086000.

Date/timePositionNaut miles runAvg speedWind from/ knotsBaromVisibWave heightAir tempDewpointWater temp
2014-Nov-21 10:19N 50°34' E 000°09'810.7
2014-Nov-21 09:33N 50°36' E 000°21'10 9.9
2014-Nov-21 08:33N 50°40' E 000°36'1010.1
2014-Nov-21 07:34N 50°45' E 000°49'1111.3
2014-Nov-21 06:33N 50°52' E 001°04'1313.0
2014-Nov-21 05:32N 51°00' E 001°20'1313.5
2014-Nov-21 04:33N 51°07' E 001°38'1110.6
2014-Nov-21 03:33N 51°02' E 001°53'1212.1
2014-Nov-21 02:33N 51°03' E 002°12'6 5.2
2014-Nov-21 01:28N 51°03' E 002°21'0 0.2
2014-Nov-20 23:29N 51°03' E 002°21'0 0.0
2014-Nov-20 22:26N 51°03' E 002°21'0 0.0
2014-Nov-20 21:26N 51°03' E 002°21'0 0.0
2014-Nov-20 20:22N 51°03' E 002°21'0 0.0
2014-Nov-20 19:18N 51°03' E 002°21'0 0.0
2014-Nov-20 18:31N 51°03' E 002°21'0 0.0
2014-Nov-20 17:33N 51°03' E 002°21'0 0.0
2014-Nov-20 16:33N 51°03' E 002°21'0 0.0
2014-Nov-20 15:22N 51°03' E 002°21'0 0.0
2014-Nov-20 14:33N 51°03' E 002°21'1 0.7
2014-Nov-20 13:33N 51°03' E 002°20'15 6.9
2014-Nov-20 11:23N 51°02' E 001°56'7 6.7
2014-Nov-20 10:23N 51°02' E 001°46'1011.4
2014-Nov-20 09:34N 50°57' E 001°33'1312.3
2014-Nov-20 08:31N 50°45' E 001°24'  
2014-Nov-16 21:03N 43°20' W 003°02'0 0.0
2014-Nov-16 20:33N 43°20' W 003°02'0 0.0
2014-Nov-16 19:33N 43°20' W 003°02'0 0.0
2014-Nov-16 18:33N 43°20' W 003°02'0 0.0
2014-Nov-16 17:33N 43°20' W 003°02'0 0.0
2014-Nov-16 16:33N 43°20' W 003°02'0 0.0
2014-Nov-16 15:33N 43°20' W 003°02'0 0.0
2014-Nov-16 14:33N 43°20' W 003°02'0 0.0
2014-Nov-16 13:33N 43°20' W 003°02'0 0.0
2014-Nov-16 12:33N 43°20' W 003°02'0 0.0
2014-Nov-16 11:33N 43°20' W 003°02'0 0.0
2014-Nov-16 10:33N 43°20' W 003°02'0 0.0
2014-Nov-16 09:33N 43°20' W 003°02'0 0.0
2014-Nov-16 08:33N 43°20' W 003°02'0 0.0
2014-Nov-16 07:33N 43°20' W 003°02'0 0.0
2014-Nov-16 06:33N 43°20' W 003°02'0 0.0
2014-Nov-16 05:33N 43°20' W 003°02'0 0.0
2014-Nov-16 04:33N 43°20' W 003°02'0 0.0
2014-Nov-16 03:33N 43°20' W 003°02'0 0.0
2014-Nov-16 02:33N 43°20' W 003°02'4 4.2
2014-Nov-16 01:33N 43°24' W 003°05'1 1.3
2014-Nov-16 00:33N 43°25' W 003°06'5 5.4
2014-Nov-15 23:33N 43°30' W 003°09'1010.5
2014-Nov-15 22:33N 43°40' W 003°14'1010.2
2014-Nov-15 21:33N 43°49' W 003°19'  
2014-Nov-13 07:28N 50°33' E 000°03'1011.3
2014-Nov-13 06:33N 50°36' E 000°18'1111.0
2014-Nov-13 05:33N 50°39' E 000°35'1010.4
2014-Nov-13 04:33N 50°45' E 000°49'10 9.6
2014-Nov-13 03:33N 50°50' E 001°01'18 9.0
2014-Nov-13 01:33N 51°02' E 001°23'1010.3
2014-Nov-13 00:33N 51°07' E 001°38'1110.6
2014-Nov-12 23:34N 51°02' E 001°53'1212.4
2014-Nov-12 22:33N 51°04' E 002°12'6 5.4
2014-Nov-12 21:30N 51°03' E 002°21'1 0.6
2014-Nov-12 20:31N 51°03' E 002°21'0 0.0
2014-Nov-12 19:31N 51°03' E 002°21'0 0.0
2014-Nov-12 18:31N 51°03' E 002°21'0 0.0
2014-Nov-12 17:25N 51°03' E 002°21'0 0.0
2014-Nov-12 15:28N 51°03' E 002°21'0 0.0
2014-Nov-12 14:25N 51°03' E 002°21'0 0.0
2014-Nov-12 12:16N 51°03' E 002°21'0 0.0
2014-Nov-12 11:13N 51°03' E 002°21'0 0.0
2014-Nov-12 10:28N 51°03' E 002°21'0 0.0
2014-Nov-12 09:31N 51°03' E 002°21'0 0.0
2014-Nov-12 08:13N 51°03' E 002°21'0 0.0
2014-Nov-12 07:31N 51°03' E 002°21'0 0.0
2014-Nov-12 06:31N 51°03' E 002°21'0 0.0
2014-Nov-12 05:31N 51°03' E 002°21'0 0.0
2014-Nov-12 04:04N 51°03' E 002°21'0 0.0
2014-Nov-12 03:16N 51°03' E 002°21'0 0.0
2014-Nov-12 02:07N 51°03' E 002°21'0 0.0
2014-Nov-12 01:10N 51°03' E 002°21'0 0.0
2014-Nov-12 00:22N 51°03' E 002°21'0 0.0
2014-Nov-11 23:31N 51°03' E 002°21'0 0.0
2014-Nov-11 22:07N 51°03' E 002°21'0 0.0
2014-Nov-11 21:22N 51°03' E 002°21'0 0.0
2014-Nov-11 20:22N 51°03' E 002°21'0 0.0
2014-Nov-11 19:10N 51°03' E 002°21'0 0.0
2014-Nov-11 18:31N 51°03' E 002°21'0 0.0
2014-Nov-11 17:23N 51°03' E 002°21'0 0.0
2014-Nov-11 15:16N 51°03' E 002°21'0 0.0
2014-Nov-11 14:25N 51°03' E 002°21'0 0.0
2014-Nov-11 13:04N 51°03' E 002°21'  

Dump ship's entire track history